Cedar Key, FL (32625)

6:03 AM EST on February 11, 2016 (GMT -0500)
Waccasassa Bay Preserve State Park Headquarters | | Change Station
CLOSE
Current Station
Personal Weather Station
Location: Cedar Key, FL
Elevation: 43 ft
Nearby Weather Stations
Active Advisory: Freeze Warning

Elev 43 ft 29.21 °N, 82.98 °W | Updated 3 minutes ago

Clear
Clear
30.6 °F
Feels Like 31 °F
N
0.0
Wind Variable Wind from WNW
Gusts 0.0 mph

Today
High -- | Low -- °F
--% Chance of Precip.
Yesterday
High -- | Low -- °F
Precip. -- in
Pressure 30.30 in
Visibility 10.0 miles
Clouds Clear
Windchill 31 °F
Dew Point 31 °F
Humidity 100%
Rainfall 0.00 in
Snow Depth Not available.
7:14 AM 6:18 PM
Waxing Crescent, 11% visible
METAR KCGC 111055Z AUTO 00000KT 10SM CLR 00/M01 A3030 RMK AO2
Pressure 30.30 in
Visibility 10.0 miles
Clouds Clear
Windchill 31 °F
Dew Point 31 °F
Humidity 100%
Rainfall 0.00 in
Snow Depth Not available.
7:14 AM 6:18 PM
Waxing Crescent, 11% visible
METAR KCGC 111055Z AUTO 00000KT 10SM CLR 00/M01 A3030 RMK AO2

10-Day Weather Forecast

Almanac

Astronomy

Feb. 11, 2016 Rise Set
Actual Time
Civil Twilight
Nautical Twilight
Astronomical Twilight
Moon
Length of Visible Light
Length of Day
Tomorrow will be .
, % of the Moon is Illuminated

Today's Extremes

State Highs State Lows

Community

WunderPhotos

Upload Photos

1,892,030 photos uploaded!

WunderBlog® & News

Nearby

Air Quality

  Air Quality AQ Index Pollutant
Not available.

Snow Depth

Station Depth Elevation

Earthquake Activity

City Distance Mag. Time & Date
Minimum magnitude displayed is 2.5.

Coastal Water Temperatures

Place Temperature

Stations

Nearby Weather Stations

Station Location Temp. Windchill Dew Point Humidity Wind Precip. Elev Updated Type
                   

Watches & Warnings

Freeze Warning
Issued: 9:49 PM EST Feb. 10, 2016 – National Weather Service

... Freeze warning remains in effect from 3 am to 9 am EST
Thursday...

* temperature... 29 to 32 degrees.

* Impacts... 2 or more hours of temperatures at or below freezing
are possible.

Precautionary/preparedness actions...

Precautionary/preparedness actions...

A freeze warning is issued for 2 or more hours of temperatures
between 27 and 32 over a widespread area.

Residents should cover or move indoors any cold sensitive
plants... and bring pets indoors this evening.